Time;durP1;ratioP1;P1;durP2;ratioP2;P2;SDS_P1;SDS_P2;PMS_P1;PMS_P2;Temp;Humidity;BMP_temperature;BMP_pressure;BME280_temperature;BME280_humidity;BME280_pressure;Samples;Min_cycle;Max_cycle;Signal;HPM_P1;HPM_P2
2022/04/01 00:01:12;;;;;;;;;;;;;;;2.56;38.84;99245.85;88218;1290;90776;-76
2022/04/01 00:03:19;;;;;;;;;;;;;;;2.54;39.00;99246.23;88195;1290;94468;-76
2022/04/01 00:05:26;;;;;;;;;;;;;;;2.53;39.07;99243.98;88223;1290;76655;-73
2022/04/01 00:07:34;;;;;;;;;;;;;;;2.50;39.14;99238.77;88180;1290;81159;-73
2022/04/01 00:09:44;;;;;;;;;;;;;;;2.49;39.29;99238.90;88219;1290;98335;-73
2022/04/01 00:11:54;;;;;;;;;;;;;;;2.50;39.11;99237.64;88206;1290;89517;-73
2022/04/01 00:14:01;;;;;;;;;;;;;;;2.48;39.22;99238.29;88192;1290;95613;-73
2022/04/01 00:16:08;;;;;;;;;;;;;;;2.48;39.46;99237.39;88230;1290;78132;-73
2022/04/01 00:18:15;;;;;;;;;;;;;;;2.48;39.39;99236.38;88293;1290;81528;-73
2022/04/01 00:20:23;;;;;;;;;;;;;;;2.46;39.52;99238.79;88246;1290;98649;-76
2022/04/01 00:22:32;;;;;;;;;;;;;;;2.43;39.45;99234.92;88233;1290;88400;-76
2022/04/01 00:24:40;;;;;;;;;;;;;;;2.42;39.46;99232.45;88247;1290;92426;-76
2022/04/01 00:26:47;;;;;;;;;;;;;;;2.41;39.71;99230.56;88241;1290;77482;-76
2022/04/01 00:28:56;;;;;;;;;;;;;;;2.39;39.60;99222.91;88319;1290;83073;-75
2022/04/01 00:31:03;;;;;;;;;;;;;;;2.39;39.58;99223.13;88354;1289;97906;-76
2022/04/01 00:33:14;;;;;;;;;;;;;;;2.37;39.52;99226.48;88244;1290;89197;-76
2022/04/01 00:35:24;;;;;;;;;;;;;;;2.36;39.61;99220.43;88208;1290;95833;-76
2022/04/01 00:37:34;;;;;;;;;;;;;;;2.36;39.79;99213.70;88243;1290;76966;-76
2022/04/01 00:39:45;;;;;;;;;;;;;;;2.34;39.76;99212.60;88287;1290;82071;-76
2022/04/01 00:41:55;;;;;;;;;;;;;;;2.33;39.66;99211.73;88250;1289;99647;-75
2022/04/01 00:44:16;;;;;;;;;;;;;;;2.32;39.58;99213.77;88263;1290;88080;-76
2022/04/01 00:46:23;;;;;;;;;;;;;;;2.31;39.86;99210.54;88265;1290;94017;-75
2022/04/01 00:48:30;;;;;;;;;;;;;;;2.31;39.77;99211.80;88344;1290;76994;-75
2022/04/01 00:50:40;;;;;;;;;;;;;;;2.30;39.85;99210.40;88289;1290;80811;-73
2022/04/01 00:52:50;;;;;;;;;;;;;;;2.29;39.90;99212.83;88328;1290;98356;-73
2022/04/01 00:55:01;;;;;;;;;;;;;;;2.28;40.12;99212.80;88274;1290;85474;-75
2022/04/01 00:57:13;;;;;;;;;;;;;;;2.26;39.95;99215.43;88258;1290;94173;-74
2022/04/01 00:59:24;;;;;;;;;;;;;;;2.27;39.89;99211.54;88247;1290;76616;-75
2022/04/01 01:01:31;;;;;;;;;;;;;;;2.26;40.15;99206.39;88273;1290;83541;-76
2022/04/01 01:03:38;;;;;;;;;;;;;;;2.26;39.88;99206.40;88268;1290;96785;-76
2022/04/01 01:05:45;;;;;;;;;;;;;;;2.28;39.75;99207.35;88222;1290;89884;-75
2022/04/01 01:07:55;;;;;;;;;;;;;;;2.27;40.03;99208.14;88225;1290;95334;-75
2022/04/01 01:10:02;;;;;;;;;;;;;;;2.27;40.24;99203.88;88259;1290;77645;-75
2022/04/01 01:12:13;;;;;;;;;;;;;;;2.26;40.08;99203.04;88246;1290;82053;-75
2022/04/01 01:14:26;;;;;;;;;;;;;;;2.27;40.13;99204.21;88245;1290;100310;-76
2022/04/01 01:16:34;;;;;;;;;;;;;;;2.25;40.13;99200.31;88241;1290;88962;-76
2022/04/01 01:18:42;;;;;;;;;;;;;;;2.24;40.15;99201.58;88222;1290;95539;-75
2022/04/01 01:20:49;;;;;;;;;;;;;;;2.21;40.10;99194.18;88206;1290;76337;-75
2022/04/01 01:22:57;;;;;;;;;;;;;;;2.22;40.31;99196.38;88212;1290;82390;-76
2022/04/01 01:25:09;;;;;;;;;;;;;;;2.22;40.18;99188.79;88246;1290;97758;-73
2022/04/01 01:27:16;;;;;;;;;;;;;;;2.22;40.48;99193.52;88233;1290;89292;-73
2022/04/01 01:29:28;;;;;;;;;;;;;;;2.20;40.29;99191.10;88217;1290;95540;-73
2022/04/01 01:31:38;;;;;;;;;;;;;;;2.19;40.45;99191.17;88217;1290;78311;-72
2022/04/01 01:33:49;;;;;;;;;;;;;;;2.19;40.50;99183.63;88242;1290;79417;-73
2022/04/01 01:35:56;;;;;;;;;;;;;;;2.20;40.55;99185.58;88210;1290;98217;-74
2022/04/01 01:38:03;;;;;;;;;;;;;;;2.21;40.55;99182.48;88246;1290;90526;-73
2022/04/01 01:40:12;;;;;;;;;;;;;;;2.20;40.66;99185.25;88232;1290;93452;-76
2022/04/01 01:42:19;;;;;;;;;;;;;;;2.17;40.72;99183.28;88231;1290;77814;-75
2022/04/01 01:44:27;;;;;;;;;;;;;;;2.15;40.68;99181.69;88234;1291;83187;-75
2022/04/01 01:46:34;;;;;;;;;;;;;;;2.13;40.65;99186.54;88208;1290;97030;-75
2022/04/01 01:48:41;;;;;;;;;;;;;;;2.10;40.54;99188.34;88227;1290;89114;-75
2022/04/01 01:55:39;;;;;;;;;;;;;;;2.07;40.87;99177.95;87881;1294;80949;-74
2022/04/01 01:57:49;;;;;;;;;;;;;;;2.07;41.00;99175.12;87940;1291;97846;-74
2022/04/01 01:59:57;;;;;;;;;;;;;;;2.06;40.86;99169.72;88191;1291;89139;-76
2022/04/01 02:02:08;;;;;;;;;;;;;;;2.05;41.32;99170.96;88205;1290;92207;-78
2022/04/01 02:04:15;;;;;;;;;;;;;;;2.03;41.17;99163.20;88190;1290;77370;-74
2022/04/01 02:06:22;;;;;;;;;;;;;;;2.03;41.03;99165.46;88330;1290;79457;-74
2022/04/01 02:08:29;;;;;;;;;;;;;;;2.01;41.12;99164.42;88342;1290;98895;-74
2022/04/01 02:10:36;;;;;;;;;;;;;;;2.01;41.14;99163.35;88361;1290;86944;-72
2022/04/01 02:12:44;;;;;;;;;;;;;;;1.99;41.52;99162.54;88195;1290;95990;-74
2022/04/01 02:14:54;;;;;;;;;;;;;;;1.98;41.11;99162.39;88345;1290;77874;-72
2022/04/01 02:17:04;;;;;;;;;;;;;;;1.96;41.29;99160.70;88208;1290;82801;-75
2022/04/01 02:19:20;;;;;;;;;;;;;;;1.95;41.53;99155.90;88204;1291;98710;-75
2022/04/01 02:21:30;;;;;;;;;;;;;;;1.95;41.28;99160.16;88211;1290;90037;-75
2022/04/01 02:23:37;;;;;;;;;;;;;;;1.92;41.48;99154.97;88186;1290;94537;-77
2022/04/01 02:25:47;;;;;;;;;;;;;;;1.93;41.73;99150.95;88210;1290;77252;-75
2022/04/01 02:27:57;;;;;;;;;;;;;;;1.92;41.71;99151.34;88199;1290;81286;-75
2022/04/01 02:30:10;;;;;;;;;;;;;;;1.92;41.59;99153.21;88218;1290;98292;-75
2022/04/01 02:32:17;;;;;;;;;;;;;;;1.92;41.91;99150.68;88206;1290;87986;-74
2022/04/01 02:34:26;;;;;;;;;;;;;;;1.92;41.82;99146.27;88215;1290;95420;-75
2022/04/01 02:36:33;;;;;;;;;;;;;;;1.91;41.73;99148.48;88171;1290;77336;-75
2022/04/01 02:38:41;;;;;;;;;;;;;;;1.90;42.10;99144.04;88205;1290;82786;-75
2022/04/01 02:40:48;;;;;;;;;;;;;;;1.89;42.13;99143.34;88191;1290;97600;-73
2022/04/01 02:42:55;;;;;;;;;;;;;;;1.90;41.94;99139.42;88209;1290;89199;-72
2022/04/01 02:45:02;;;;;;;;;;;;;;;1.90;42.21;99139.71;88202;1290;95309;-76
2022/04/01 02:47:09;;;;;;;;;;;;;;;1.86;42.50;99145.51;88212;1290;77484;-75
2022/04/01 02:49:18;;;;;;;;;;;;;;;1.82;42.43;99140.27;88201;1290;81986;-76
2022/04/01 02:51:25;;;;;;;;;;;;;;;1.81;42.41;99134.65;88174;1290;99663;-77
2022/04/01 02:53:32;;;;;;;;;;;;;;;1.82;42.74;99134.74;88195;1290;88659;-76
2022/04/01 02:55:39;;;;;;;;;;;;;;;1.81;42.69;99131.17;88182;1290;95403;-76
2022/04/01 02:57:47;;;;;;;;;;;;;;;1.78;42.92;99130.56;88187;1290;78323;-75
2022/04/01 02:59:57;;;;;;;;;;;;;;;1.77;43.00;99126.59;88210;1290;81746;-76
2022/04/01 03:02:04;;;;;;;;;;;;;;;1.77;43.21;99130.13;88210;1290;100081;-76
2022/04/01 03:04:12;;;;;;;;;;;;;;;1.76;42.85;99125.46;88195;1290;86753;-73
2022/04/01 03:06:20;;;;;;;;;;;;;;;1.74;43.32;99124.42;88344;1290;94637;-75
2022/04/01 03:08:27;;;;;;;;;;;;;;;1.73;43.41;99121.87;88341;1290;78200;-74
2022/04/01 03:10:35;;;;;;;;;;;;;;;1.71;43.51;99125.39;88218;1290;81936;-74
2022/04/01 03:12:41;;;;;;;;;;;;;;;1.71;43.96;99125.27;88192;1290;99613;-77
2022/04/01 03:14:49;;;;;;;;;;;;;;;1.67;43.80;99122.09;88224;1290;88453;-75
2022/04/01 03:16:56;;;;;;;;;;;;;;;1.68;43.79;99119.17;88192;1290;93493;-75
2022/04/01 03:19:08;;;;;;;;;;;;;;;1.69;43.85;99122.50;88183;1290;79031;-77
2022/04/01 03:21:18;;;;;;;;;;;;;;;1.66;44.13;99121.69;88202;1290;81184;-75
2022/04/01 03:23:28;;;;;;;;;;;;;;;1.66;44.31;99116.05;88213;1290;98364;-75
2022/04/01 03:25:38;;;;;;;;;;;;;;;1.66;44.34;99116.04;88206;1290;86103;-75
2022/04/01 03:27:45;;;;;;;;;;;;;;;1.64;44.26;99118.69;88192;1291;94629;-75
2022/04/01 03:29:53;;;;;;;;;;;;;;;1.62;44.54;99114.11;88003;1291;275073;-75
2022/04/01 03:32:04;;;;;;;;;;;;;;;1.61;44.69;99123.38;88214;1291;82165;-75
2022/04/01 03:34:11;;;;;;;;;;;;;;;1.58;45.02;99112.06;88192;1290;99090;-75
2022/04/01 03:36:18;;;;;;;;;;;;;;;1.56;45.45;99128.63;88204;1290;88530;-75
2022/04/01 03:38:25;;;;;;;;;;;;;;;1.55;45.56;99111.92;88322;1288;94079;-76
2022/04/01 03:40:34;;;;;;;;;;;;;;;1.52;45.63;99119.67;88208;1291;77758;-75
2022/04/01 03:42:42;;;;;;;;;;;;;;;1.49;45.44;99111.64;88193;1290;82038;-76
2022/04/01 03:44:53;;;;;;;;;;;;;;;1.47;46.05;99110.09;88224;1290;100293;-73
2022/04/01 03:47:05;;;;;;;;;;;;;;;1.46;46.29;99112.36;88182;1291;86761;-72
2022/04/01 03:49:13;;;;;;;;;;;;;;;1.46;45.97;99117.63;88229;1290;95664;-74
2022/04/01 03:51:24;;;;;;;;;;;;;;;1.46;46.19;99115.73;88352;1290;77238;-73
2022/04/01 03:53:33;;;;;;;;;;;;;;;1.45;46.30;99117.45;88240;1289;83105;-73
2022/04/01 03:55:43;;;;;;;;;;;;;;;1.45;46.31;99118.12;88326;1290;100047;-74
2022/04/01 03:57:50;;;;;;;;;;;;;;;1.45;46.15;99116.86;88238;1290;88156;-72
2022/04/01 04:00:00;;;;;;;;;;;;;;;1.43;46.73;99119.59;88251;1290;93868;-73
2022/04/01 04:02:08;;;;;;;;;;;;;;;1.40;46.87;99118.74;88288;1290;78660;-74
2022/04/01 04:04:19;;;;;;;;;;;;;;;1.35;47.45;99124.88;88268;1290;83020;-73
2022/04/01 04:06:26;;;;;;;;;;;;;;;1.33;47.45;99126.52;88275;1290;99775;-71
2022/04/01 04:08:34;;;;;;;;;;;;;;;1.28;47.97;99127.39;88269;1290;88687;-74
2022/04/01 04:10:41;;;;;;;;;;;;;;;1.25;48.27;99121.33;88256;1289;94761;-72
2022/04/01 04:12:49;;;;;;;;;;;;;;;1.25;48.02;99119.40;88232;1290;78626;-72
2022/04/01 04:14:57;;;;;;;;;;;;;;;1.23;47.92;99127.44;88235;1290;81712;-72
2022/04/01 04:17:12;;;;;;;;;;;;;;;1.21;47.87;99118.98;88252;1290;98913;-72
2022/04/01 04:19:29;;;;;;;;;;;;;;;1.24;47.66;99127.70;88267;1290;89954;-71
2022/04/01 04:21:41;;;;;;;;;;;;;;;1.24;47.56;99126.44;88281;1289;95152;-72
2022/04/01 04:23:52;;;;;;;;;;;;;;;1.23;47.96;99129.55;88256;1289;77179;-71
2022/04/01 04:26:05;;;;;;;;;;;;;;;1.20;47.89;99126.50;88261;1290;81019;-71
2022/04/01 04:28:15;;;;;;;;;;;;;;;1.22;47.71;99128.42;88267;1290;99087;-73
2022/04/01 04:30:26;;;;;;;;;;;;;;;1.19;48.20;99126.80;88285;1289;88727;-72
2022/04/01 04:32:37;;;;;;;;;;;;;;;1.16;48.34;99129.20;88326;1290;93733;-72
2022/04/01 04:34:48;;;;;;;;;;;;;;;1.15;48.84;99126.30;88255;1289;79992;-72
2022/04/01 04:36:57;;;;;;;;;;;;;;;1.14;48.73;99124.09;88283;1290;79500;-71
2022/04/01 04:39:08;;;;;;;;;;;;;;;1.13;48.60;99121.39;88261;1290;98558;-73
2022/04/01 04:41:15;;;;;;;;;;;;;;;1.11;48.97;99132.27;88272;1289;85334;-69
2022/04/01 04:43:25;;;;;;;;;;;;;;;1.07;48.91;99128.41;88235;1290;94626;-71
2022/04/01 04:45:32;;;;;;;;;;;;;;;1.07;48.81;99125.02;88261;1290;78337;-71
2022/04/01 04:47:42;;;;;;;;;;;;;;;1.10;48.50;99124.53;88270;1290;82388;-71
2022/04/01 04:49:52;;;;;;;;;;;;;;;1.10;48.80;99124.02;88266;1290;97631;-70
2022/04/01 04:52:02;;;;;;;;;;;;;;;1.10;48.92;99121.16;88288;1290;88154;-72
2022/04/01 04:54:13;;;;;;;;;;;;;;;1.10;48.90;99128.61;88269;1290;96416;-72
2022/04/01 04:56:20;;;;;;;;;;;;;;;1.10;48.78;99129.70;88223;1289;79873;-71
2022/04/01 04:58:31;;;;;;;;;;;;;;;1.10;48.76;99129.35;88260;1290;83287;-72
2022/04/01 05:00:40;;;;;;;;;;;;;;;1.11;49.33;99128.68;88261;1290;100018;-73
2022/04/01 05:03:06;;;;;;;;;;;;;;;1.14;49.06;99136.38;88329;1290;89002;-71
2022/04/01 05:05:25;;;;;;;;;;;;;;;1.14;48.93;99132.66;88256;1290;93408;-71
2022/04/01 05:07:47;;;;;;;;;;;;;;;1.16;48.75;99132.23;88229;1290;80402;-72
2022/04/01 05:10:01;;;;;;;;;;;;;;;1.16;48.76;99134.66;88254;1290;79470;-73
2022/04/01 05:12:21;;;;;;;;;;;;;;;1.14;48.81;99134.21;88248;1289;99694;-73
2022/04/01 05:15:02;;;;;;;;;;;;;;;1.16;48.63;99131.14;88252;1290;88738;-72
2022/04/01 05:17:15;;;;;;;;;;;;;;;1.14;49.13;99139.90;87883;1293;94175;-71
2022/04/01 05:19:28;;;;;;;;;;;;;;;1.14;49.22;99145.75;88246;1290;78070;-71
2022/04/01 05:21:42;;;;;;;;;;;;;;;1.09;50.05;99145.44;88277;1290;83728;-72
2022/04/01 05:24:01;;;;;;;;;;;;;;;1.06;50.11;99141.60;88259;1290;98802;-71
2022/04/01 05:26:12;;;;;;;;;;;;;;;1.07;49.70;99140.84;88251;1290;89228;-70
2022/04/01 05:28:25;;;;;;;;;;;;;;;1.09;50.12;99138.09;88234;1290;95588;-71
2022/04/01 05:30:38;;;;;;;;;;;;;;;1.10;49.93;99139.25;88209;1290;80106;-72
2022/04/01 05:33:06;;;;;;;;;;;;;;;1.10;50.24;99131.10;88224;1290;81891;-71
2022/04/01 05:35:13;;;;;;;;;;;;;;;1.06;50.73;99139.61;88375;1290;97799;-72
2022/04/01 05:37:24;;;;;;;;;;;;;;;1.04;50.81;99129.42;88230;1290;88060;-72
2022/04/01 05:39:34;;;;;;;;;;;;;;;1.02;51.29;99138.30;88231;1290;94550;-72
2022/04/01 05:41:42;;;;;;;;;;;;;;;1.03;50.94;99138.54;88229;1290;77851;-72
2022/04/01 05:43:52;;;;;;;;;;;;;;;1.03;51.33;99142.67;88238;1290;81825;-72
2022/04/01 05:45:59;;;;;;;;;;;;;;;0.99;51.55;99150.14;88243;1289;99883;-71
2022/04/01 05:48:10;;;;;;;;;;;;;;;0.97;51.83;99146.98;88232;1290;88740;-70
2022/04/01 05:50:19;;;;;;;;;;;;;;;0.95;51.94;99145.05;88228;1290;94049;-71
2022/04/01 05:52:27;;;;;;;;;;;;;;;0.92;52.20;99144.83;88238;1290;77895;-72
2022/04/01 05:54:35;;;;;;;;;;;;;;;0.92;52.22;99141.70;88237;1290;82181;-70
2022/04/01 05:56:46;;;;;;;;;;;;;;;0.95;51.92;99146.90;88208;1290;99512;-74
2022/04/01 05:58:53;;;;;;;;;;;;;;;0.93;52.47;99148.48;88216;1290;88847;-73
2022/04/01 06:01:09;;;;;;;;;;;;;;;0.95;52.12;99141.36;88214;1291;95630;-73
2022/04/01 06:03:32;;;;;;;;;;;;;;;1.00;51.93;99141.77;88219;1290;77402;-73
2022/04/01 06:05:44;;;;;;;;;;;;;;;1.04;51.98;99143.46;88203;1293;79211;-72
2022/04/01 06:07:58;;;;;;;;;;;;;;;1.03;51.74;99135.73;88322;1290;99970;-73
2022/04/01 06:10:09;;;;;;;;;;;;;;;1.06;51.85;99134.88;88236;1292;89206;-74
2022/04/01 06:12:29;;;;;;;;;;;;;;;1.10;51.80;99131.80;88198;1293;95946;-71
2022/04/01 06:14:42;;;;;;;;;;;;;;;1.11;51.40;99135.01;88216;1292;77597;-72
2022/04/01 06:16:54;;;;;;;;;;;;;;;1.16;51.24;99131.16;88231;1292;79667;-72
2022/04/01 06:19:19;;;;;;;;;;;;;;;1.23;50.68;99131.13;88211;1293;100267;-71
2022/04/01 06:21:31;;;;;;;;;;;;;;;1.30;50.57;99138.04;88217;1292;88892;-71
2022/04/01 06:23:56;;;;;;;;;;;;;;;1.35;50.27;99129.51;88218;1292;96031;-71
2022/04/01 06:26:03;;;;;;;;;;;;;;;1.39;50.03;99136.52;88211;1293;78720;-71
2022/04/01 06:28:24;;;;;;;;;;;;;;;1.41;49.92;99135.60;88205;1292;79751;-72
2022/04/01 06:30:34;;;;;;;;;;;;;;;1.46;49.58;99137.02;88224;1292;100000;-72
2022/04/01 06:32:51;;;;;;;;;;;;;;;1.51;49.40;99130.64;88231;1292;87174;-71
2022/04/01 06:35:10;;;;;;;;;;;;;;;1.56;49.33;99134.17;88229;1291;95039;-72
2022/04/01 06:37:28;;;;;;;;;;;;;;;1.60;48.92;99135.98;88197;1292;79514;-73
2022/04/01 06:39:43;;;;;;;;;;;;;;;1.61;49.07;99140.55;88242;1291;80004;-72
2022/04/01 06:41:55;;;;;;;;;;;;;;;1.62;49.28;99135.46;88222;1292;99212;-72
2022/04/01 06:44:06;;;;;;;;;;;;;;;1.60;49.44;99135.35;88228;1292;89240;-72
2022/04/01 06:46:13;;;;;;;;;;;;;;;1.59;49.37;99134.35;88208;1292;93057;-73
2022/04/01 06:48:23;;;;;;;;;;;;;;;1.66;49.10;99134.54;88194;1293;78530;-73
2022/04/01 06:50:30;;;;;;;;;;;;;;;1.64;49.62;99147.59;88251;1292;80642;-74
2022/04/01 06:52:37;;;;;;;;;;;;;;;1.56;50.19;99149.77;88231;1292;97799;-73
2022/04/01 06:54:46;;;;;;;;;;;;;;;1.50;50.28;99143.54;88212;1293;89231;-73
2022/04/01 06:56:53;;;;;;;;;;;;;;;1.44;51.10;99143.30;88196;1293;93886;-72
2022/04/01 06:59:00;;;;;;;;;;;;;;;1.42;51.40;99131.05;88218;1292;78978;-73
2022/04/01 07:01:07;;;;;;;;;;;;;;;1.44;51.31;99139.77;88231;1292;82699;-72
2022/04/01 07:03:15;;;;;;;;;;;;;;;1.46;50.93;99133.10;88215;1291;98416;-72
2022/04/01 07:05:22;;;;;;;;;;;;;;;1.55;50.80;99131.29;88340;1290;86848;-72
2022/04/01 07:07:29;;;;;;;;;;;;;;;1.61;50.40;99124.01;88231;1293;93934;-72
2022/04/01 07:09:36;;;;;;;;;;;;;;;1.69;50.77;99138.46;88206;1293;79854;-72
2022/04/01 07:11:43;;;;;;;;;;;;;;;1.65;51.49;99130.91;88233;1291;82945;-73
2022/04/01 07:13:50;;;;;;;;;;;;;;;1.60;51.56;99135.98;88323;1290;98947;-72
2022/04/01 07:15:57;;;;;;;;;;;;;;;1.60;51.47;99134.09;88210;1292;88888;-72
2022/04/01 07:18:04;;;;;;;;;;;;;;;1.64;51.29;99132.99;88199;1292;95073;-72
2022/04/01 07:20:13;;;;;;;;;;;;;;;1.64;51.26;99136.96;88204;1293;77670;-74
2022/04/01 07:22:20;;;;;;;;;;;;;;;1.67;51.39;99134.54;88227;1292;82507;-74
2022/04/01 07:24:27;;;;;;;;;;;;;;;1.64;51.98;99136.33;88216;1291;100116;-74
2022/04/01 07:26:34;;;;;;;;;;;;;;;1.67;52.19;99135.63;88221;1291;88917;-72
2022/04/01 07:28:41;;;;;;;;;;;;;;;1.72;52.16;99130.08;88209;1291;94666;-71
2022/04/01 07:30:50;;;;;;;;;;;;;;;1.76;51.75;99137.84;88224;1291;77818;-72
2022/04/01 07:33:00;;;;;;;;;;;;;;;1.77;51.65;99131.29;88238;1291;82694;-74
2022/04/01 07:35:14;;;;;;;;;;;;;;;1.85;51.39;99126.23;88230;1291;99001;-73
2022/04/01 07:37:25;;;;;;;;;;;;;;;1.97;50.99;99127.77;88214;1291;89294;-75
2022/04/01 07:39:32;;;;;;;;;;;;;;;2.01;51.30;99126.66;88233;1289;92679;-78
2022/04/01 07:41:39;;;;;;;;;;;;;;;2.03;51.37;99136.57;88312;1290;77443;-73
2022/04/01 07:43:46;;;;;;;;;;;;;;;2.00;51.71;99130.84;88220;1290;79768;-73
2022/04/01 07:45:53;;;;;;;;;;;;;;;1.96;51.93;99129.27;88352;1290;97168;-70
2022/04/01 07:48:01;;;;;;;;;;;;;;;1.90;52.62;99131.04;88238;1290;88482;-74
2022/04/01 07:50:08;;;;;;;;;;;;;;;1.84;52.70;99133.84;88238;1290;95595;-74
2022/04/01 07:52:17;;;;;;;;;;;;;;;1.82;52.56;99134.95;88207;1290;77601;-77
2022/04/01 07:54:25;;;;;;;;;;;;;;;1.77;53.17;99136.61;88255;1290;80527;-68
2022/04/01 07:56:32;;;;;;;;;;;;;;;1.76;52.78;99136.04;88232;1291;99881;-68
2022/04/01 07:58:45;;;;;;;;;;;;;;;1.72;53.53;99142.49;88232;1290;89295;-70
2022/04/01 08:00:52;;;;;;;;;;;;;;;1.70;53.44;99138.34;88220;1290;95295;-76
2022/04/01 08:03:02;;;;;;;;;;;;;;;1.75;53.89;99143.27;88238;1290;79703;-76
2022/04/01 08:05:10;;;;;;;;;;;;;;;1.70;54.94;99147.55;88301;1290;82266;-75
2022/04/01 08:07:17;;;;;;;;;;;;;;;1.70;54.83;99141.62;88241;1290;97781;-75
2022/04/01 08:09:27;;;;;;;;;;;;;;;1.73;54.51;99136.86;88391;1290;89206;-71
2022/04/01 08:11:35;;;;;;;;;;;;;;;1.72;54.73;99140.20;88343;1290;95275;-71
2022/04/01 08:13:42;;;;;;;;;;;;;;;1.74;54.53;99137.14;88233;1291;76643;-70
2022/04/01 08:15:49;;;;;;;;;;;;;;;1.77;54.88;99137.19;88263;1290;81774;-70
2022/04/01 08:17:56;;;;;;;;;;;;;;;1.77;54.71;99130.63;88236;1290;99319;-72
2022/04/01 08:20:04;;;;;;;;;;;;;;;1.77;55.00;99131.69;88254;1291;88660;-77
2022/04/01 08:22:12;;;;;;;;;;;;;;;1.76;55.62;99134.45;88244;1290;95434;-76
2022/04/01 08:24:24;;;;;;;;;;;;;;;1.71;55.58;99136.44;88259;1290;77148;-73
2022/04/01 08:26:31;;;;;;;;;;;;;;;1.70;56.31;99128.94;88238;1290;83438;-72
2022/04/01 08:28:42;;;;;;;;;;;;;;;1.72;55.92;99136.68;88229;1290;99236;-73
2022/04/01 08:30:52;;;;;;;;;;;;;;;1.72;56.32;99132.45;88238;1290;86589;-73
2022/04/01 08:33:00;;;;;;;;;;;;;;;1.67;56.55;99132.77;88237;1290;96369;-72
2022/04/01 08:35:12;;;;;;;;;;;;;;;1.66;57.12;99138.55;88273;1290;79727;-71
2022/04/01 08:37:19;;;;;;;;;;;;;;;1.67;56.73;99129.73;88312;1290;78954;-71
2022/04/01 08:39:28;;;;;;;;;;;;;;;1.79;56.62;99141.74;88278;1290;100117;-70
2022/04/01 08:41:36;;;;;;;;;;;;;;;1.88;56.46;99142.48;88343;1290;88287;-70
2022/04/01 08:43:47;;;;;;;;;;;;;;;1.92;56.38;99141.25;88262;1290;95786;-75
2022/04/01 08:45:54;;;;;;;;;;;;;;;1.99;56.58;99140.56;88295;1290;77145;-76
2022/04/01 08:48:02;;;;;;;;;;;;;;;1.94;56.62;99145.67;88322;1290;82778;-76
2022/04/01 08:50:10;;;;;;;;;;;;;;;1.89;57.14;99143.92;88342;1290;99853;-78
2022/04/01 08:52:20;;;;;;;;;;;;;;;1.87;56.80;99150.00;88322;1290;85949;-76
2022/04/01 08:54:34;;;;;;;;;;;;;;;1.87;57.16;99145.20;88274;1290;96201;-74
2022/04/01 08:56:41;;;;;;;;;;;;;;;1.85;57.84;99146.36;88340;1290;78211;-75
2022/04/01 08:58:51;;;;;;;;;;;;;;;1.84;58.22;99148.17;88303;1290;81533;-70
2022/04/01 09:01:02;;;;;;;;;;;;;;;1.88;57.84;99150.80;88296;1290;100137;-78
2022/04/01 09:03:10;;;;;;;;;;;;;;;1.91;58.23;99153.09;88301;1290;85863;-74
2022/04/01 09:05:22;;;;;;;;;;;;;;;1.83;58.49;99154.12;88344;1290;94041;-73
2022/04/01 09:07:32;;;;;;;;;;;;;;;1.75;58.85;99154.48;88357;1290;77673;-74
2022/04/01 09:09:39;;;;;;;;;;;;;;;1.73;59.13;99155.61;88303;1290;80274;-71
2022/04/01 09:12:03;;;;;;;;;;;;;;;1.69;59.23;99147.68;88274;1290;100031;-72
2022/04/01 09:14:21;;;;;;;;;;;;;;;1.77;59.29;99149.45;88269;1290;86674;-71
2022/04/01 09:16:31;;;;;;;;;;;;;;;1.78;59.93;99152.55;88250;1290;95133;-70
2022/04/01 09:18:46;;;;;;;;;;;;;;;1.77;60.09;99153.89;88260;1290;77647;-70
2022/04/01 09:20:55;;;;;;;;;;;;;;;1.80;60.78;99154.08;88273;1290;83649;-70
2022/04/01 09:23:04;;;;;;;;;;;;;;;1.77;60.66;99148.06;88252;1290;99619;-72
2022/04/01 09:25:16;;;;;;;;;;;;;;;1.77;60.58;99151.59;88265;1290;87200;-75
2022/04/01 09:29:59;;;;;;;;;;;;;;;1.63;61.67;99154.66;85333;1313;599387;-75
2022/04/01 09:32:09;;;;;;;;;;;;;;;1.61;61.26;99147.79;87862;1283;79372;-75
2022/04/01 09:34:16;;;;;;;;;;;;;;;1.64;61.91;99147.44;87919;1283;80057;-69
2022/04/01 09:36:27;;;;;;;;;;;;;;;1.67;61.43;99144.45;87862;1283;96744;-72
2022/04/01 09:38:37;;;;;;;;;;;;;;;1.76;61.49;99143.14;87840;1283;88542;-72
2022/04/01 09:40:45;;;;;;;;;;;;;;;1.73;61.66;99147.16;87776;1284;94510;-73
2022/04/01 09:42:56;;;;;;;;;;;;;;;1.70;61.56;99133.17;87437;1284;3377007;-71
2022/04/01 09:45:08;;;;;;;;;;;;;;;1.71;62.06;99135.21;87986;1281;79473;-72
2022/04/01 09:47:21;;;;;;;;;;;;;;;1.66;62.04;99138.55;88016;1281;83495;-71
2022/04/01 09:49:39;;;;;;;;;;;;;;;1.72;62.33;99136.90;88509;1271;98021;-72
2022/04/01 09:51:46;;;;;;;;;;;;;;;1.74;62.31;99138.08;88501;1271;88574;-74
2022/04/01 09:53:54;;;;;;;;;;;;;;;1.80;62.43;99136.21;88445;1270;94238;-71
2022/04/01 09:56:05;;;;;;;;;;;;;;;1.88;62.44;99139.59;88430;1271;76964;-71
2022/04/01 09:58:13;;;;;;;;;;;;;;;1.89;62.56;99134.83;88476;1271;83428;-72
2022/04/01 10:00:20;;;;;;;;;;;;;;;1.85;62.73;99141.70;88473;1271;97305;-71
2022/04/01 10:02:29;;;;;;;;;;;;;;;1.81;62.63;99139.08;88465;1271;89726;-72
2022/04/01 10:04:41;;;;;;;;;;;;;;;1.82;62.89;99151.46;88463;1271;95066;-72
2022/04/01 10:06:48;;;;;;;;;;;;;;;1.73;63.41;99148.83;88452;1271;78862;-72
2022/04/01 10:08:56;;;;;;;;;;;;;;;1.76;63.23;99139.41;88500;1271;81064;-73
2022/04/01 10:11:03;;;;;;;;;;;;;;;1.82;63.42;99137.39;88461;1271;98431;-71
2022/04/01 10:13:26;;;;;;;;;;;;;;;1.81;63.77;99144.73;88496;1270;89376;-71
2022/04/01 10:15:38;;;;;;;;;;;;;;;1.77;64.02;99144.63;88490;1271;95148;-73
2022/04/01 10:17:46;;;;;;;;;;;;;;;1.86;63.82;99140.19;88478;1271;77194;-72
2022/04/01 10:19:55;;;;;;;;;;;;;;;1.91;63.94;99139.42;88514;1271;82240;-73
2022/04/01 10:22:06;;;;;;;;;;;;;;;1.89;64.15;99129.88;88466;1271;97778;-73
2022/04/01 10:24:34;;;;;;;;;;;;;;;1.91;64.55;99131.33;88518;1271;87941;-72
2022/04/01 10:26:47;;;;;;;;;;;;;;;1.96;64.52;99130.20;88441;1271;93084;-71
2022/04/01 10:28:55;;;;;;;;;;;;;;;1.94;65.23;99132.21;88467;1271;77522;-72
2022/04/01 10:31:04;;;;;;;;;;;;;;;1.94;64.75;99135.77;88503;1271;81322;-72
2022/04/01 10:33:22;;;;;;;;;;;;;;;1.96;65.27;99141.92;88475;1270;98312;-72
2022/04/01 10:35:30;;;;;;;;;;;;;;;1.98;64.86;99138.86;88372;1271;87861;-73
2022/04/01 10:37:41;;;;;;;;;;;;;;;2.07;64.88;99133.81;88483;1271;94493;-71
2022/04/01 10:39:53;;;;;;;;;;;;;;;2.04;64.92;99132.91;88485;1268;77208;-72
2022/04/01 10:42:12;;;;;;;;;;;;;;;2.00;65.19;99134.90;88466;1271;81120;-72
2022/04/01 10:44:19;;;;;;;;;;;;;;;1.96;65.13;99136.56;88500;1271;98471;-72
2022/04/01 10:46:26;;;;;;;;;;;;;;;2.00;65.18;99133.00;88469;1271;88568;-73
2022/04/01 10:53:39;;;;;;;;;;;;;;;1.91;66.16;99120.98;85251;1315;599036;-73
2022/04/01 10:55:46;;;;;;;;;;;;;;;1.93;65.94;99126.27;87590;1284;76668;-73
2022/04/01 10:58:07;;;;;;;;;;;;;;;1.90;66.43;99122.30;87545;1287;82344;-72
2022/04/01 11:00:16;;;;;;;;;;;;;;;1.92;66.20;99133.00;87571;1287;97963;-72
2022/04/01 11:02:27;;;;;;;;;;;;;;;1.92;66.18;99127.23;88109;1277;86922;-72
2022/04/01 11:04:36;;;;;;;;;;;;;;;1.90;66.35;99122.55;88119;1277;95374;-72
2022/04/01 11:06:54;;;;;;;;;;;;;;;1.88;66.62;99125.00;85558;1277;3429075;-72
2022/04/01 11:09:04;;;;;;;;;;;;;;;1.82;66.97;99124.57;88188;1276;82909;-73
2022/04/01 11:11:13;;;;;;;;;;;;;;;1.83;66.88;99118.48;88184;1277;95480;-72
2022/04/01 11:13:31;;;;;;;;;;;;;;;1.84;67.21;99118.88;88193;1277;87855;-72
2022/04/01 11:15:38;;;;;;;;;;;;;;;1.87;67.12;99119.08;88176;1276;95477;-73
2022/04/01 11:18:09;;;;;;;;;;;;;;;1.90;67.40;99117.32;88196;1278;78358;-73
2022/04/01 11:20:27;;;;;;;;;;;;;;;1.85;67.44;99119.48;88254;1276;81233;-73
2022/04/01 11:22:38;;;;;;;;;;;;;;;1.91;67.39;99114.46;88188;1278;98292;-74
2022/04/01 11:24:48;;;;;;;;;;;;;;;1.99;67.46;99113.57;88185;1277;88162;-75
2022/04/01 11:26:55;;;;;;;;;;;;;;;2.02;67.26;99114.26;88191;1277;93498;-73
2022/04/01 11:29:16;;;;;;;;;;;;;;;2.11;67.19;99112.77;88188;1277;80035;-73
2022/04/01 11:31:23;;;;;;;;;;;;;;;2.11;67.19;99108.70;88220;1278;80839;-73
2022/04/01 11:33:30;;;;;;;;;;;;;;;1.99;67.20;99105.51;88206;1278;96337;-74
2022/04/01 11:35:40;;;;;;;;;;;;;;;2.04;67.23;99104.61;88253;1277;87795;-70
2022/04/01 11:37:49;;;;;;;;;;;;;;;1.97;67.49;99109.34;88192;1277;95492;-71